sensor_id;sensor_type;location;lat;lon;timestamp;P1;durP1;ratioP1;P2;durP2;ratioP2
23310;SDS011;11828;51.508;18.118;2023-05-10T00:00:54;11.07;;;4.82;;
23310;SDS011;11828;51.508;18.118;2023-05-10T00:03:20;11.13;;;4.55;;
23310;SDS011;11828;51.508;18.118;2023-05-10T00:05:46;9.10;;;4.30;;
23310;SDS011;11828;51.508;18.118;2023-05-10T00:08:12;15.70;;;4.75;;
23310;SDS011;11828;51.508;18.118;2023-05-10T00:10:38;14.65;;;5.13;;
23310;SDS011;11828;51.508;18.118;2023-05-10T00:13:05;15.35;;;5.50;;
23310;SDS011;11828;51.508;18.118;2023-05-10T00:15:31;13.93;;;5.10;;
23310;SDS011;11828;51.508;18.118;2023-05-10T00:17:57;12.15;;;4.63;;
23310;SDS011;11828;51.508;18.118;2023-05-10T00:20:24;19.85;;;5.53;;
23310;SDS011;11828;51.508;18.118;2023-05-10T00:22:50;14.30;;;4.95;;
23310;SDS011;11828;51.508;18.118;2023-05-10T00:25:16;11.43;;;5.00;;
23310;SDS011;11828;51.508;18.118;2023-05-10T00:27:42;16.13;;;5.88;;
23310;SDS011;11828;51.508;18.118;2023-05-10T00:30:08;17.25;;;5.68;;
23310;SDS011;11828;51.508;18.118;2023-05-10T00:32:37;10.80;;;4.60;;
23310;SDS011;11828;51.508;18.118;2023-05-10T00:35:03;16.23;;;5.47;;
23310;SDS011;11828;51.508;18.118;2023-05-10T00:37:30;8.70;;;4.90;;
23310;SDS011;11828;51.508;18.118;2023-05-10T00:39:56;14.10;;;4.78;;
23310;SDS011;11828;51.508;18.118;2023-05-10T00:42:22;10.73;;;4.95;;
23310;SDS011;11828;51.508;18.118;2023-05-10T00:44:48;12.85;;;4.53;;
23310;SDS011;11828;51.508;18.118;2023-05-10T00:47:15;13.25;;;4.40;;
23310;SDS011;11828;51.508;18.118;2023-05-10T00:49:42;12.18;;;4.35;;
23310;SDS011;11828;51.508;18.118;2023-05-10T00:52:09;12.40;;;5.10;;
23310;SDS011;11828;51.508;18.118;2023-05-10T00:54:35;11.65;;;4.75;;
23310;SDS011;11828;51.508;18.118;2023-05-10T00:57:02;14.07;;;5.25;;
23310;SDS011;11828;51.508;18.118;2023-05-10T00:59:28;15.77;;;5.18;;
23310;SDS011;11828;51.508;18.118;2023-05-10T01:01:55;14.70;;;5.07;;
23310;SDS011;11828;51.508;18.118;2023-05-10T01:04:21;17.33;;;5.72;;
23310;SDS011;11828;51.508;18.118;2023-05-10T01:06:51;12.93;;;5.78;;
23310;SDS011;11828;51.508;18.118;2023-05-10T01:09:19;10.30;;;5.22;;
23310;SDS011;11828;51.508;18.118;2023-05-10T01:11:46;15.77;;;5.53;;
23310;SDS011;11828;51.508;18.118;2023-05-10T01:14:14;12.48;;;5.40;;
23310;SDS011;11828;51.508;18.118;2023-05-10T01:16:44;14.23;;;5.57;;
23310;SDS011;11828;51.508;18.118;2023-05-10T01:19:15;9.45;;;4.93;;
23310;SDS011;11828;51.508;18.118;2023-05-10T01:22:00;15.73;;;4.85;;
23310;SDS011;11828;51.508;18.118;2023-05-10T01:24:51;22.10;;;5.47;;
23310;SDS011;11828;51.508;18.118;2023-05-10T01:33:52;10.80;;;4.47;;
23310;SDS011;11828;51.508;18.118;2023-05-10T01:36:38;11.63;;;4.88;;
23310;SDS011;11828;51.508;18.118;2023-05-10T01:39:17;17.55;;;6.30;;
23310;SDS011;11828;51.508;18.118;2023-05-10T01:42:10;18.67;;;6.32;;
23310;SDS011;11828;51.508;18.118;2023-05-10T01:44:51;13.45;;;5.20;;
23310;SDS011;11828;51.508;18.118;2023-05-10T01:47:40;11.07;;;4.85;;
23310;SDS011;11828;51.508;18.118;2023-05-10T01:50:19;19.00;;;5.47;;
23310;SDS011;11828;51.508;18.118;2023-05-10T01:52:53;9.77;;;4.70;;
23310;SDS011;11828;51.508;18.118;2023-05-10T01:55:24;13.63;;;4.78;;
23310;SDS011;11828;51.508;18.118;2023-05-10T01:57:57;11.18;;;4.55;;
23310;SDS011;11828;51.508;18.118;2023-05-10T02:00:36;24.15;;;5.68;;
23310;SDS011;11828;51.508;18.118;2023-05-10T02:03:06;14.60;;;5.53;;
23310;SDS011;11828;51.508;18.118;2023-05-10T02:05:33;16.80;;;5.75;;
23310;SDS011;11828;51.508;18.118;2023-05-10T02:08:01;13.93;;;5.57;;
23310;SDS011;11828;51.508;18.118;2023-05-10T02:10:29;14.02;;;5.20;;
23310;SDS011;11828;51.508;18.118;2023-05-10T02:12:55;15.68;;;4.88;;
23310;SDS011;11828;51.508;18.118;2023-05-10T02:15:25;8.07;;;4.60;;
23310;SDS011;11828;51.508;18.118;2023-05-10T02:17:54;11.63;;;4.72;;
23310;SDS011;11828;51.508;18.118;2023-05-10T02:20:22;11.15;;;4.90;;
23310;SDS011;11828;51.508;18.118;2023-05-10T02:22:50;27.42;;;6.13;;
23310;SDS011;11828;51.508;18.118;2023-05-10T02:25:20;13.98;;;4.95;;
23310;SDS011;11828;51.508;18.118;2023-05-10T02:27:48;23.25;;;5.55;;
23310;SDS011;11828;51.508;18.118;2023-05-10T02:30:15;13.90;;;4.57;;
23310;SDS011;11828;51.508;18.118;2023-05-10T02:32:43;10.57;;;4.70;;
23310;SDS011;11828;51.508;18.118;2023-05-10T02:35:10;13.40;;;4.75;;
23310;SDS011;11828;51.508;18.118;2023-05-10T02:37:37;13.85;;;4.70;;
23310;SDS011;11828;51.508;18.118;2023-05-10T02:40:05;13.00;;;4.65;;
23310;SDS011;11828;51.508;18.118;2023-05-10T02:42:33;32.78;;;6.47;;
23310;SDS011;11828;51.508;18.118;2023-05-10T02:45:05;26.13;;;5.90;;
23310;SDS011;11828;51.508;18.118;2023-05-10T02:47:37;13.70;;;5.22;;
23310;SDS011;11828;51.508;18.118;2023-05-10T02:50:04;13.80;;;5.05;;
23310;SDS011;11828;51.508;18.118;2023-05-10T02:52:38;14.07;;;4.65;;
23310;SDS011;11828;51.508;18.118;2023-05-10T02:55:09;17.00;;;5.07;;
23310;SDS011;11828;51.508;18.118;2023-05-10T02:57:42;18.30;;;4.97;;
23310;SDS011;11828;51.508;18.118;2023-05-10T03:00:23;23.98;;;5.75;;
23310;SDS011;11828;51.508;18.118;2023-05-10T03:02:50;19.67;;;5.68;;
23310;SDS011;11828;51.508;18.118;2023-05-10T03:05:16;16.88;;;5.55;;
23310;SDS011;11828;51.508;18.118;2023-05-10T03:07:43;11.68;;;4.28;;
23310;SDS011;11828;51.508;18.118;2023-05-10T03:10:11;28.73;;;6.25;;
23310;SDS011;11828;51.508;18.118;2023-05-10T03:18:37;13.60;;;5.05;;
23310;SDS011;11828;51.508;18.118;2023-05-10T03:21:12;17.38;;;5.63;;
23310;SDS011;11828;51.508;18.118;2023-05-10T03:24:06;28.55;;;5.90;;
23310;SDS011;11828;51.508;18.118;2023-05-10T03:26:32;136.50;;;63.83;;
23310;SDS011;11828;51.508;18.118;2023-05-10T03:28:58;159.05;;;70.93;;
23310;SDS011;11828;51.508;18.118;2023-05-10T03:31:26;157.07;;;71.72;;
23310;SDS011;11828;51.508;18.118;2023-05-10T03:33:52;191.88;;;77.45;;
23310;SDS011;11828;51.508;18.118;2023-05-10T03:36:19;206.10;;;79.63;;
23310;SDS011;11828;51.508;18.118;2023-05-10T03:38:45;211.52;;;77.15;;
23310;SDS011;11828;51.508;18.118;2023-05-10T03:41:11;213.13;;;78.50;;
23310;SDS011;11828;51.508;18.118;2023-05-10T03:43:37;217.73;;;80.68;;
23310;SDS011;11828;51.508;18.118;2023-05-10T03:46:04;211.98;;;77.43;;
23310;SDS011;11828;51.508;18.118;2023-05-10T03:48:31;206.25;;;76.88;;
23310;SDS011;11828;51.508;18.118;2023-05-10T03:50:58;208.93;;;77.43;;
23310;SDS011;11828;51.508;18.118;2023-05-10T03:53:24;216.40;;;80.10;;
23310;SDS011;11828;51.508;18.118;2023-05-10T03:55:50;210.15;;;78.13;;
23310;SDS011;11828;51.508;18.118;2023-05-10T03:58:16;216.00;;;77.60;;
23310;SDS011;11828;51.508;18.118;2023-05-10T04:00:43;220.30;;;79.30;;
23310;SDS011;11828;51.508;18.118;2023-05-10T04:03:11;205.07;;;77.75;;
23310;SDS011;11828;51.508;18.118;2023-05-10T04:05:38;214.38;;;78.07;;
23310;SDS011;11828;51.508;18.118;2023-05-10T04:08:04;212.38;;;78.10;;
23310;SDS011;11828;51.508;18.118;2023-05-10T04:10:30;207.15;;;77.82;;
23310;SDS011;11828;51.508;18.118;2023-05-10T04:12:57;204.27;;;78.93;;
23310;SDS011;11828;51.508;18.118;2023-05-10T04:15:23;200.45;;;77.78;;
23310;SDS011;11828;51.508;18.118;2023-05-10T04:17:49;207.75;;;79.93;;
23310;SDS011;11828;51.508;18.118;2023-05-10T04:20:16;198.80;;;78.35;;
23310;SDS011;11828;51.508;18.118;2023-05-10T04:22:42;225.85;;;79.60;;
23310;SDS011;11828;51.508;18.118;2023-05-10T04:25:09;195.32;;;78.45;;
23310;SDS011;11828;51.508;18.118;2023-05-10T04:27:35;190.20;;;78.13;;
23310;SDS011;11828;51.508;18.118;2023-05-10T04:30:01;186.70;;;78.72;;
23310;SDS011;11828;51.508;18.118;2023-05-10T04:32:28;168.10;;;75.90;;
23310;SDS011;11828;51.508;18.118;2023-05-10T04:34:55;176.85;;;76.70;;
23310;SDS011;11828;51.508;18.118;2023-05-10T04:37:21;189.27;;;77.13;;
23310;SDS011;11828;51.508;18.118;2023-05-10T04:39:48;179.57;;;78.00;;
23310;SDS011;11828;51.508;18.118;2023-05-10T04:42:14;193.80;;;80.47;;
23310;SDS011;11828;51.508;18.118;2023-05-10T04:44:40;183.32;;;76.85;;
23310;SDS011;11828;51.508;18.118;2023-05-10T04:47:07;185.77;;;76.60;;
23310;SDS011;11828;51.508;18.118;2023-05-10T04:49:33;193.63;;;78.32;;
23310;SDS011;11828;51.508;18.118;2023-05-10T04:51:59;201.07;;;79.22;;
23310;SDS011;11828;51.508;18.118;2023-05-10T04:54:25;207.52;;;77.53;;
23310;SDS011;11828;51.508;18.118;2023-05-10T04:56:51;223.77;;;79.72;;
23310;SDS011;11828;51.508;18.118;2023-05-10T04:59:18;213.57;;;80.30;;
23310;SDS011;11828;51.508;18.118;2023-05-10T05:01:44;219.27;;;80.70;;
23310;SDS011;11828;51.508;18.118;2023-05-10T05:04:10;226.13;;;80.78;;
23310;SDS011;11828;51.508;18.118;2023-05-10T05:06:36;218.82;;;78.78;;
23310;SDS011;11828;51.508;18.118;2023-05-10T05:09:02;235.23;;;80.63;;
23310;SDS011;11828;51.508;18.118;2023-05-10T05:11:29;227.73;;;81.38;;
23310;SDS011;11828;51.508;18.118;2023-05-10T05:13:55;224.57;;;80.45;;
23310;SDS011;11828;51.508;18.118;2023-05-10T05:16:21;223.88;;;78.45;;
23310;SDS011;11828;51.508;18.118;2023-05-10T05:18:47;224.95;;;78.90;;
23310;SDS011;11828;51.508;18.118;2023-05-10T05:21:16;223.50;;;80.32;;
23310;SDS011;11828;51.508;18.118;2023-05-10T05:23:45;222.13;;;80.25;;
23310;SDS011;11828;51.508;18.118;2023-05-10T05:26:11;214.70;;;80.00;;
23310;SDS011;11828;51.508;18.118;2023-05-10T05:28:38;218.60;;;81.53;;
23310;SDS011;11828;51.508;18.118;2023-05-10T05:31:04;226.30;;;80.18;;
23310;SDS011;11828;51.508;18.118;2023-05-10T05:33:31;212.60;;;79.78;;
23310;SDS011;11828;51.508;18.118;2023-05-10T05:35:57;217.60;;;80.20;;
23310;SDS011;11828;51.508;18.118;2023-05-10T05:38:27;197.05;;;78.93;;
23310;SDS011;11828;51.508;18.118;2023-05-10T05:40:53;201.48;;;78.68;;
23310;SDS011;11828;51.508;18.118;2023-05-10T05:43:19;202.98;;;80.45;;
23310;SDS011;11828;51.508;18.118;2023-05-10T05:45:45;190.75;;;79.40;;
23310;SDS011;11828;51.508;18.118;2023-05-10T05:48:12;190.73;;;79.57;;
23310;SDS011;11828;51.508;18.118;2023-05-10T05:50:38;186.30;;;78.40;;
23310;SDS011;11828;51.508;18.118;2023-05-10T05:53:04;178.80;;;78.78;;
23310;SDS011;11828;51.508;18.118;2023-05-10T05:55:30;173.63;;;78.88;;
23310;SDS011;11828;51.508;18.118;2023-05-10T05:57:57;187.88;;;78.72;;
23310;SDS011;11828;51.508;18.118;2023-05-10T06:00:23;181.00;;;79.93;;
23310;SDS011;11828;51.508;18.118;2023-05-10T06:02:50;185.13;;;80.25;;
23310;SDS011;11828;51.508;18.118;2023-05-10T06:05:16;169.68;;;76.38;;
23310;SDS011;11828;51.508;18.118;2023-05-10T06:07:42;166.70;;;77.50;;
23310;SDS011;11828;51.508;18.118;2023-05-10T06:10:09;164.65;;;79.93;;
23310;SDS011;11828;51.508;18.118;2023-05-10T06:12:36;189.95;;;84.78;;
23310;SDS011;11828;51.508;18.118;2023-05-10T06:15:02;205.50;;;85.43;;
23310;SDS011;11828;51.508;18.118;2023-05-10T06:17:29;167.77;;;83.18;;
23310;SDS011;11828;51.508;18.118;2023-05-10T06:19:55;168.80;;;79.57;;
23310;SDS011;11828;51.508;18.118;2023-05-10T06:22:21;148.57;;;78.43;;
23310;SDS011;11828;51.508;18.118;2023-05-10T06:24:48;163.48;;;80.30;;
23310;SDS011;11828;51.508;18.118;2023-05-10T06:27:15;135.45;;;75.65;;
23310;SDS011;11828;51.508;18.118;2023-05-10T06:29:41;121.05;;;70.63;;
23310;SDS011;11828;51.508;18.118;2023-05-10T06:32:07;159.85;;;81.15;;
23310;SDS011;11828;51.508;18.118;2023-05-10T06:34:33;162.82;;;81.57;;
23310;SDS011;11828;51.508;18.118;2023-05-10T06:36:59;170.65;;;80.85;;
23310;SDS011;11828;51.508;18.118;2023-05-10T06:39:25;171.15;;;82.63;;
23310;SDS011;11828;51.508;18.118;2023-05-10T06:41:52;156.77;;;80.20;;
23310;SDS011;11828;51.508;18.118;2023-05-10T06:44:18;127.28;;;73.15;;
23310;SDS011;11828;51.508;18.118;2023-05-10T06:46:44;107.60;;;65.75;;
23310;SDS011;11828;51.508;18.118;2023-05-10T06:49:10;83.65;;;57.45;;
23310;SDS011;11828;51.508;18.118;2023-05-10T06:51:37;44.17;;;37.25;;
23310;SDS011;11828;51.508;18.118;2023-05-10T06:54:03;20.85;;;10.13;;
23310;SDS011;11828;51.508;18.118;2023-05-10T06:56:29;15.90;;;7.05;;
23310;SDS011;11828;51.508;18.118;2023-05-10T06:58:55;20.40;;;6.80;;
23310;SDS011;11828;51.508;18.118;2023-05-10T07:01:21;27.20;;;6.40;;
23310;SDS011;11828;51.508;18.118;2023-05-10T07:03:47;15.95;;;4.93;;
23310;SDS011;11828;51.508;18.118;2023-05-10T07:06:13;7.97;;;4.03;;
23310;SDS011;11828;51.508;18.118;2023-05-10T07:08:39;12.32;;;4.38;;
23310;SDS011;11828;51.508;18.118;2023-05-10T07:11:06;15.20;;;4.80;;
23310;SDS011;11828;51.508;18.118;2023-05-10T07:13:33;19.60;;;5.22;;
23310;SDS011;11828;51.508;18.118;2023-05-10T07:16:00;13.77;;;4.35;;
23310;SDS011;11828;51.508;18.118;2023-05-10T07:18:27;13.15;;;4.32;;
23310;SDS011;11828;51.508;18.118;2023-05-10T07:20:54;14.45;;;5.10;;
23310;SDS011;11828;51.508;18.118;2023-05-10T07:23:20;15.18;;;4.43;;
23310;SDS011;11828;51.508;18.118;2023-05-10T07:25:49;17.15;;;4.47;;
23310;SDS011;11828;51.508;18.118;2023-05-10T07:28:17;10.30;;;3.88;;
23310;SDS011;11828;51.508;18.118;2023-05-10T07:30:44;15.57;;;4.90;;
23310;SDS011;11828;51.508;18.118;2023-05-10T07:33:10;11.98;;;3.92;;
23310;SDS011;11828;51.508;18.118;2023-05-10T07:35:38;12.85;;;3.80;;
23310;SDS011;11828;51.508;18.118;2023-05-10T07:38:04;27.83;;;5.30;;
23310;SDS011;11828;51.508;18.118;2023-05-10T07:40:31;10.45;;;3.40;;
23310;SDS011;11828;51.508;18.118;2023-05-10T07:42:57;17.23;;;4.07;;
23310;SDS011;11828;51.508;18.118;2023-05-10T07:45:23;17.83;;;4.68;;
23310;SDS011;11828;51.508;18.118;2023-05-10T07:47:49;21.08;;;4.72;;
23310;SDS011;11828;51.508;18.118;2023-05-10T07:50:16;15.50;;;4.47;;
23310;SDS011;11828;51.508;18.118;2023-05-10T07:52:42;20.55;;;4.68;;
23310;SDS011;11828;51.508;18.118;2023-05-10T07:55:08;11.82;;;3.72;;
23310;SDS011;11828;51.508;18.118;2023-05-10T07:57:35;20.80;;;4.65;;
23310;SDS011;11828;51.508;18.118;2023-05-10T08:00:02;22.67;;;4.97;;
23310;SDS011;11828;51.508;18.118;2023-05-10T08:02:28;15.13;;;4.13;;
23310;SDS011;11828;51.508;18.118;2023-05-10T08:04:55;13.57;;;4.07;;
23310;SDS011;11828;51.508;18.118;2023-05-10T08:07:21;22.48;;;4.63;;
23310;SDS011;11828;51.508;18.118;2023-05-10T08:09:47;14.80;;;3.97;;
23310;SDS011;11828;51.508;18.118;2023-05-10T08:12:13;11.52;;;4.10;;
23310;SDS011;11828;51.508;18.118;2023-05-10T08:14:39;7.70;;;3.30;;
23310;SDS011;11828;51.508;18.118;2023-05-10T08:17:05;12.75;;;4.18;;
23310;SDS011;11828;51.508;18.118;2023-05-10T08:19:32;17.02;;;4.15;;
23310;SDS011;11828;51.508;18.118;2023-05-10T08:21:58;8.48;;;3.50;;
23310;SDS011;11828;51.508;18.118;2023-05-10T08:24:24;17.23;;;4.65;;
23310;SDS011;11828;51.508;18.118;2023-05-10T08:26:50;11.02;;;3.83;;
23310;SDS011;11828;51.508;18.118;2023-05-10T08:29:16;9.55;;;3.15;;
23310;SDS011;11828;51.508;18.118;2023-05-10T08:31:42;8.10;;;3.03;;
23310;SDS011;11828;51.508;18.118;2023-05-10T08:34:08;10.73;;;3.20;;
23310;SDS011;11828;51.508;18.118;2023-05-10T08:36:34;15.75;;;3.85;;
23310;SDS011;11828;51.508;18.118;2023-05-10T08:39:01;12.90;;;3.50;;
23310;SDS011;11828;51.508;18.118;2023-05-10T08:41:28;9.00;;;3.42;;
23310;SDS011;11828;51.508;18.118;2023-05-10T08:43:55;9.45;;;3.45;;
23310;SDS011;11828;51.508;18.118;2023-05-10T08:46:22;7.68;;;3.10;;
23310;SDS011;11828;51.508;18.118;2023-05-10T08:48:49;6.07;;;2.95;;
23310;SDS011;11828;51.508;18.118;2023-05-10T08:51:18;7.43;;;2.97;;
23310;SDS011;11828;51.508;18.118;2023-05-10T08:53:52;6.35;;;3.25;;
23310;SDS011;11828;51.508;18.118;2023-05-10T08:56:18;7.38;;;3.00;;
23310;SDS011;11828;51.508;18.118;2023-05-10T08:58:46;9.15;;;3.47;;
23310;SDS011;11828;51.508;18.118;2023-05-10T09:01:12;12.57;;;4.13;;
23310;SDS011;11828;51.508;18.118;2023-05-10T09:03:41;9.02;;;3.55;;
23310;SDS011;11828;51.508;18.118;2023-05-10T09:06:07;10.75;;;3.53;;
23310;SDS011;11828;51.508;18.118;2023-05-10T09:08:33;12.02;;;3.90;;
23310;SDS011;11828;51.508;18.118;2023-05-10T09:11:01;6.28;;;3.33;;
23310;SDS011;11828;51.508;18.118;2023-05-10T09:13:28;11.05;;;3.55;;
23310;SDS011;11828;51.508;18.118;2023-05-10T09:15:55;6.57;;;3.15;;
23310;SDS011;11828;51.508;18.118;2023-05-10T09:18:22;9.18;;;3.05;;
23310;SDS011;11828;51.508;18.118;2023-05-10T09:20:48;6.75;;;3.20;;
23310;SDS011;11828;51.508;18.118;2023-05-10T09:23:14;6.13;;;3.03;;
23310;SDS011;11828;51.508;18.118;2023-05-10T09:25:41;5.32;;;2.88;;
23310;SDS011;11828;51.508;18.118;2023-05-10T09:28:08;9.05;;;3.20;;
23310;SDS011;11828;51.508;18.118;2023-05-10T09:30:34;5.50;;;2.55;;
23310;SDS011;11828;51.508;18.118;2023-05-10T09:33:01;6.68;;;3.08;;
23310;SDS011;11828;51.508;18.118;2023-05-10T09:35:28;7.40;;;2.92;;
23310;SDS011;11828;51.508;18.118;2023-05-10T09:37:59;10.07;;;3.60;;
23310;SDS011;11828;51.508;18.118;2023-05-10T09:40:28;7.78;;;3.95;;
23310;SDS011;11828;51.508;18.118;2023-05-10T09:43:00;7.07;;;3.15;;
23310;SDS011;11828;51.508;18.118;2023-05-10T09:45:28;8.70;;;2.85;;
23310;SDS011;11828;51.508;18.118;2023-05-10T09:47:56;8.50;;;3.35;;
23310;SDS011;11828;51.508;18.118;2023-05-10T09:50:24;8.25;;;3.38;;
23310;SDS011;11828;51.508;18.118;2023-05-10T09:55:20;6.35;;;2.30;;
23310;SDS011;11828;51.508;18.118;2023-05-10T09:57:49;4.78;;;2.10;;
23310;SDS011;11828;51.508;18.118;2023-05-10T10:00:24;10.65;;;3.08;;
23310;SDS011;11828;51.508;18.118;2023-05-10T10:02:55;7.28;;;2.63;;
23310;SDS011;11828;51.508;18.118;2023-05-10T10:05:33;6.90;;;2.35;;
23310;SDS011;11828;51.508;18.118;2023-05-10T10:08:04;6.88;;;2.72;;
23310;SDS011;11828;51.508;18.118;2023-05-10T10:10:31;9.77;;;3.00;;
23310;SDS011;11828;51.508;18.118;2023-05-10T10:12:58;10.88;;;3.97;;
23310;SDS011;11828;51.508;18.118;2023-05-10T10:15:25;13.70;;;3.65;;
23310;SDS011;11828;51.508;18.118;2023-05-10T10:17:52;10.60;;;3.42;;
23310;SDS011;11828;51.508;18.118;2023-05-10T10:20:19;10.50;;;3.72;;
23310;SDS011;11828;51.508;18.118;2023-05-10T10:22:48;8.23;;;3.00;;
23310;SDS011;11828;51.508;18.118;2023-05-10T10:25:15;8.43;;;3.40;;
23310;SDS011;11828;51.508;18.118;2023-05-10T10:27:56;13.00;;;4.60;;
23310;SDS011;11828;51.508;18.118;2023-05-10T10:30:42;10.35;;;4.28;;
23310;SDS011;11828;51.508;18.118;2023-05-10T10:35:44;10.43;;;3.95;;
23310;SDS011;11828;51.508;18.118;2023-05-10T10:38:12;7.75;;;3.55;;
23310;SDS011;11828;51.508;18.118;2023-05-10T10:40:39;8.55;;;3.40;;
23310;SDS011;11828;51.508;18.118;2023-05-10T10:43:22;10.35;;;4.15;;
23310;SDS011;11828;51.508;18.118;2023-05-10T10:48:47;13.73;;;4.35;;
23310;SDS011;11828;51.508;18.118;2023-05-10T10:51:16;10.23;;;3.97;;
23310;SDS011;11828;51.508;18.118;2023-05-10T10:53:43;9.07;;;3.83;;
23310;SDS011;11828;51.508;18.118;2023-05-10T10:56:12;10.73;;;3.70;;
23310;SDS011;11828;51.508;18.118;2023-05-10T10:58:40;9.30;;;3.30;;
23310;SDS011;11828;51.508;18.118;2023-05-10T11:01:19;8.85;;;3.67;;
23310;SDS011;11828;51.508;18.118;2023-05-10T11:06:34;12.57;;;4.43;;
23310;SDS011;11828;51.508;18.118;2023-05-10T11:11:37;16.00;;;4.72;;
23310;SDS011;11828;51.508;18.118;2023-05-10T11:14:20;9.57;;;3.88;;
23310;SDS011;11828;51.508;18.118;2023-05-10T11:16:47;10.32;;;3.78;;
23310;SDS011;11828;51.508;18.118;2023-05-10T11:19:15;13.05;;;3.75;;
23310;SDS011;11828;51.508;18.118;2023-05-10T11:21:52;15.65;;;5.43;;
23310;SDS011;11828;51.508;18.118;2023-05-10T11:24:31;14.38;;;5.57;;
23310;SDS011;11828;51.508;18.118;2023-05-10T11:26:58;13.35;;;5.47;;
23310;SDS011;11828;51.508;18.118;2023-05-10T11:29:26;13.02;;;4.63;;
23310;SDS011;11828;51.508;18.118;2023-05-10T11:31:52;13.23;;;5.00;;
23310;SDS011;11828;51.508;18.118;2023-05-10T11:34:29;11.02;;;4.97;;
23310;SDS011;11828;51.508;18.118;2023-05-10T11:36:59;13.50;;;4.07;;
23310;SDS011;11828;51.508;18.118;2023-05-10T11:39:26;14.48;;;4.03;;
23310;SDS011;11828;51.508;18.118;2023-05-10T11:41:54;13.18;;;4.38;;
23310;SDS011;11828;51.508;18.118;2023-05-10T11:44:22;10.05;;;4.63;;
23310;SDS011;11828;51.508;18.118;2023-05-10T11:46:48;10.27;;;4.28;;
23310;SDS011;11828;51.508;18.118;2023-05-10T11:49:15;12.38;;;4.93;;
23310;SDS011;11828;51.508;18.118;2023-05-10T11:51:41;11.38;;;4.57;;
23310;SDS011;11828;51.508;18.118;2023-05-10T11:54:09;14.52;;;4.57;;
23310;SDS011;11828;51.508;18.118;2023-05-10T11:56:37;12.52;;;4.57;;
23310;SDS011;11828;51.508;18.118;2023-05-10T11:59:04;15.85;;;4.90;;
23310;SDS011;11828;51.508;18.118;2023-05-10T12:01:30;10.35;;;4.28;;
23310;SDS011;11828;51.508;18.118;2023-05-10T12:03:57;9.07;;;3.85;;
23310;SDS011;11828;51.508;18.118;2023-05-10T12:06:31;12.65;;;4.43;;
23310;SDS011;11828;51.508;18.118;2023-05-10T12:09:07;10.77;;;3.90;;
23310;SDS011;11828;51.508;18.118;2023-05-10T12:11:37;14.98;;;5.38;;
23310;SDS011;11828;51.508;18.118;2023-05-10T12:14:05;12.02;;;4.45;;
23310;SDS011;11828;51.508;18.118;2023-05-10T12:16:33;14.40;;;4.25;;
23310;SDS011;11828;51.508;18.118;2023-05-10T12:19:00;10.75;;;4.80;;
23310;SDS011;11828;51.508;18.118;2023-05-10T12:21:27;16.85;;;4.38;;
23310;SDS011;11828;51.508;18.118;2023-05-10T12:23:59;9.05;;;3.92;;
23310;SDS011;11828;51.508;18.118;2023-05-10T12:26:28;23.05;;;6.13;;
23310;SDS011;11828;51.508;18.118;2023-05-10T12:28:55;14.35;;;4.55;;
23310;SDS011;11828;51.508;18.118;2023-05-10T12:31:51;18.75;;;5.40;;
23310;SDS011;11828;51.508;18.118;2023-05-10T12:34:26;8.15;;;4.90;;
23310;SDS011;11828;51.508;18.118;2023-05-10T12:36:57;11.93;;;4.13;;
23310;SDS011;11828;51.508;18.118;2023-05-10T12:39:23;11.35;;;4.35;;
23310;SDS011;11828;51.508;18.118;2023-05-10T12:41:50;7.65;;;3.78;;
23310;SDS011;11828;51.508;18.118;2023-05-10T12:44:17;9.25;;;3.70;;
23310;SDS011;11828;51.508;18.118;2023-05-10T12:46:44;11.82;;;4.32;;
23310;SDS011;11828;51.508;18.118;2023-05-10T12:49:10;9.18;;;3.90;;
23310;SDS011;11828;51.508;18.118;2023-05-10T12:51:37;6.78;;;3.60;;
23310;SDS011;11828;51.508;18.118;2023-05-10T12:54:04;9.10;;;3.50;;
23310;SDS011;11828;51.508;18.118;2023-05-10T12:56:30;12.98;;;3.97;;
23310;SDS011;11828;51.508;18.118;2023-05-10T12:58:56;20.70;;;9.65;;
23310;SDS011;11828;51.508;18.118;2023-05-10T13:01:22;15.98;;;6.63;;
23310;SDS011;11828;51.508;18.118;2023-05-10T13:03:49;12.77;;;4.00;;
23310;SDS011;11828;51.508;18.118;2023-05-10T13:06:15;15.27;;;3.90;;
23310;SDS011;11828;51.508;18.118;2023-05-10T13:08:41;33.65;;;6.20;;
23310;SDS011;11828;51.508;18.118;2023-05-10T13:11:07;19.85;;;4.60;;
23310;SDS011;11828;51.508;18.118;2023-05-10T13:13:34;17.52;;;4.65;;
23310;SDS011;11828;51.508;18.118;2023-05-10T13:16:00;15.93;;;4.28;;
23310;SDS011;11828;51.508;18.118;2023-05-10T13:18:26;17.23;;;4.85;;
23310;SDS011;11828;51.508;18.118;2023-05-10T13:20:53;9.98;;;3.97;;
23310;SDS011;11828;51.508;18.118;2023-05-10T13:23:21;12.40;;;4.35;;
23310;SDS011;11828;51.508;18.118;2023-05-10T13:25:47;12.02;;;3.80;;
23310;SDS011;11828;51.508;18.118;2023-05-10T13:28:13;16.45;;;4.80;;
23310;SDS011;11828;51.508;18.118;2023-05-10T13:30:39;14.77;;;4.38;;
23310;SDS011;11828;51.508;18.118;2023-05-10T13:33:05;31.63;;;6.00;;
23310;SDS011;11828;51.508;18.118;2023-05-10T13:35:31;14.57;;;4.00;;
23310;SDS011;11828;51.508;18.118;2023-05-10T13:37:57;9.70;;;3.50;;
23310;SDS011;11828;51.508;18.118;2023-05-10T13:40:23;11.02;;;3.97;;
23310;SDS011;11828;51.508;18.118;2023-05-10T13:42:49;14.77;;;4.20;;
23310;SDS011;11828;51.508;18.118;2023-05-10T13:45:15;15.95;;;4.60;;
23310;SDS011;11828;51.508;18.118;2023-05-10T13:47:41;18.92;;;4.85;;
23310;SDS011;11828;51.508;18.118;2023-05-10T13:50:08;15.77;;;4.65;;
23310;SDS011;11828;51.508;18.118;2023-05-10T13:52:34;12.18;;;4.32;;
23310;SDS011;11828;51.508;18.118;2023-05-10T13:55:00;13.88;;;4.13;;
23310;SDS011;11828;51.508;18.118;2023-05-10T13:57:26;11.90;;;3.97;;
23310;SDS011;11828;51.508;18.118;2023-05-10T13:59:54;18.67;;;4.75;;
23310;SDS011;11828;51.508;18.118;2023-05-10T14:02:20;14.88;;;4.05;;
23310;SDS011;11828;51.508;18.118;2023-05-10T14:04:47;13.50;;;4.10;;
23310;SDS011;11828;51.508;18.118;2023-05-10T14:07:13;12.65;;;4.13;;
23310;SDS011;11828;51.508;18.118;2023-05-10T14:09:39;18.00;;;5.78;;
23310;SDS011;11828;51.508;18.118;2023-05-10T14:12:05;14.95;;;4.25;;
23310;SDS011;11828;51.508;18.118;2023-05-10T14:14:31;11.38;;;3.78;;
23310;SDS011;11828;51.508;18.118;2023-05-10T14:16:58;13.82;;;4.03;;
23310;SDS011;11828;51.508;18.118;2023-05-10T14:19:24;15.48;;;4.10;;
23310;SDS011;11828;51.508;18.118;2023-05-10T14:21:52;12.00;;;3.97;;
23310;SDS011;11828;51.508;18.118;2023-05-10T14:24:18;17.25;;;4.43;;
23310;SDS011;11828;51.508;18.118;2023-05-10T14:26:44;12.38;;;4.13;;
23310;SDS011;11828;51.508;18.118;2023-05-10T14:29:10;17.33;;;4.68;;
23310;SDS011;11828;51.508;18.118;2023-05-10T14:31:36;17.55;;;4.47;;
23310;SDS011;11828;51.508;18.118;2023-05-10T14:34:02;16.33;;;4.32;;
23310;SDS011;11828;51.508;18.118;2023-05-10T14:36:29;10.63;;;3.75;;
23310;SDS011;11828;51.508;18.118;2023-05-10T14:38:54;18.60;;;5.32;;
23310;SDS011;11828;51.508;18.118;2023-05-10T14:41:21;20.90;;;4.90;;
23310;SDS011;11828;51.508;18.118;2023-05-10T14:43:48;26.15;;;9.00;;
23310;SDS011;11828;51.508;18.118;2023-05-10T14:46:14;20.30;;;5.55;;
23310;SDS011;11828;51.508;18.118;2023-05-10T14:48:41;17.02;;;4.65;;